(°C)
24°
23°
22°
22°
21°
21°
20°
(°C)
24°
23°
22°
21°
21°
21°
20°
ENE
ENE
ENE
ENE
ENE
ENE
ENE
(km/h)
11-19
11-21
11-23
11-24
10-23
9-21
8-20
(mm)
0
0
0
0
0
0
0
(%)
0
0
0
0
0
0
0

Elevazione del sole

/ -23.5°
sun-icon
UV 7
07:30
18:59
Gibbosa crescente (155°)
18:13
05:38

METAR per Tampa (KTPF)

Ora Condizioni Temperatura/
Punto di rugiada
Vento Visibilità Tempo Nuvole Pressione Cambiamento Grezzo
VFR 24°C / 15°C 90º 5kt >10km - Broken Clouds 11000ft - KTPF 190015Z AUTO 09005KT 10SM BKN110 24/15 A3007 RMK AO2
VFR 25°C / 15°C 90º 4kt >10km - Broken Clouds 11000ft - KTPF 182355Z AUTO 09004KT 10SM BKN110 25/15 A3007 RMK AO2
VFR 25°C / 15°C 100º 4kt >10km - Broken Clouds 11000ft - KTPF 182335Z AUTO 10004KT 10SM BKN110 25/15 A3006 RMK AO2
VFR 25°C / 14°C 90º 3kt >10km - Overcast 11000ft - KTPF 182315Z AUTO 09003KT 10SM OVC110 25/14 A3006 RMK AO2
VFR 26°C / 14°C 80º 6kt >10km - Broken Clouds 11000ft - KTPF 182255Z AUTO 08006KT 10SM BKN110 26/14 A3005 RMK AO2
VFR 26°C / 13°C 90º 6kt >10km - Broken Clouds 10000ft - KTPF 182235Z AUTO 09006KT 10SM BKN100 26/13 A3005 RMK AO2
VFR 27°C / 13°C 90º 6kt >10km - Scattered Clouds 11000ft - KTPF 182215Z AUTO 09006KT 10SM SCT110 27/13 A3005 RMK AO2
VFR 27°C / 13°C 70º 7kt >10km - Scattered Clouds 11000ft - KTPF 182155Z AUTO 07007KT 10SM SCT110 27/13 A3004 RMK AO2
VFR 28°C / 14°C 80º 8kt >10km - Scattered Clouds 9500ft
Scattered Clouds 11000ft
- KTPF 182135Z AUTO 08008KT 10SM SCT095 SCT110 28/14 A3004 RMK AO2
VFR 28°C / 15°C 70º 9kt >10km - Broken Clouds 10000ft - KTPF 182115Z AUTO 07009KT 10SM BKN100 28/15 A3004 RMK AO2
VFR 29°C / 15°C 70º 8kt >10km - Broken Clouds 11000ft - KTPF 182055Z AUTO 07008KT 10SM BKN110 29/15 A3003 RMK AO2
VFR 29°C / 15°C 80º 8kt >10km - Broken Clouds 10000ft - KTPF 182035Z AUTO 08008KT 10SM BKN100 29/15 A3003 RMK AO2
VFR 29°C / 15°C 100º 5kt >10km - Scattered Clouds 7500ft
Overcast 10000ft
- KTPF 182015Z AUTO 10005KT 10SM SCT075 OVC100 29/15 A3003 RMK AO2
VFR 29°C / 15°C 60º 11kt >10km - Scattered Clouds 7500ft
Broken Clouds 10000ft
Overcast 12000ft
- KTPF 181955Z AUTO 06011KT 10SM SCT075 BKN100 OVC120 29/15 A3004 RMK AO2
VFR 30°C / 14°C 110º 5kt Gust 8kt >10km - Broken Clouds 10000ft
Overcast 12000ft
- KTPF 181935Z AUTO 11005G08KT 10SM BKN100 OVC120 30/14 A3004 RMK AO2
VFR 30°C / 15°C 110º 6kt >10km - Broken Clouds 10000ft
Overcast 12000ft
- KTPF 181915Z AUTO 11006KT 10SM BKN100 OVC120 30/15 A3004 RMK AO2
VFR 30°C / 15°C 60º 8kt >10km - Scattered Clouds 8000ft
Overcast 10000ft
- KTPF 181855Z AUTO 06008KT 10SM SCT080 OVC100 30/15 A3005 RMK AO2
VFR 29°C / 15°C 90º 7kt >10km - Overcast 10000ft - KTPF 181835Z AUTO 09007KT 10SM OVC100 29/15 A3006 RMK AO2
VFR 28°C / 15°C 90º 5kt >10km - Scattered Clouds 7000ft
Overcast 10000ft
- KTPF 181815Z AUTO 09005KT 10SM SCT070 OVC100 28/15 A3006 RMK AO2
VFR 28°C / 15°C 120º 5kt >10km - Broken Clouds 10000ft
Overcast 11000ft
- KTPF 181755Z AUTO 12005KT 10SM BKN100 OVC110 28/15 A3007 RMK AO2
VFR 28°C / 14°C 110º 8kt >10km - Broken Clouds 10000ft - KTPF 181735Z AUTO 11008KT 10SM BKN100 28/14 A3008 RMK AO2
VFR 28°C / 15°C 130º 7kt >10km - Broken Clouds 10000ft - KTPF 181715Z AUTO 13007KT 10SM BKN100 28/15 A3009 RMK AO2
VFR 28°C / 15°C 100º 8kt Gust 14kt >10km - Broken Clouds 10000ft - KTPF 181655Z AUTO 10008G14KT 7SM BKN100 28/15 A3009 RMK AO2
VFR 27°C / 15°C 110º 8kt >10km - Broken Clouds 10000ft
Broken Clouds 12000ft
- KTPF 181635Z AUTO 11008KT 10SM BKN100 BKN120 27/15 A3010 RMK AO2

VFR

24°C / 15°C

[Più]
Vento 90º 5kt
Visibilità >10km
Tempo -
Nuvole Broken Clouds 11000ft
Pressione
Cambiamento -
Grezzo KTPF 190015Z AUTO 09005KT 10SM BKN110 24/15 A3007 RMK AO2

VFR

25°C / 15°C

[Più]
Vento 90º 4kt
Visibilità >10km
Tempo -
Nuvole Broken Clouds 11000ft
Pressione
Cambiamento -
Grezzo KTPF 182355Z AUTO 09004KT 10SM BKN110 25/15 A3007 RMK AO2

VFR

25°C / 15°C

[Più]
Vento 100º 4kt
Visibilità >10km
Tempo -
Nuvole Broken Clouds 11000ft
Pressione
Cambiamento -
Grezzo KTPF 182335Z AUTO 10004KT 10SM BKN110 25/15 A3006 RMK AO2

VFR

25°C / 14°C

[Più]
Vento 90º 3kt
Visibilità >10km
Tempo -
Nuvole Overcast 11000ft
Pressione
Cambiamento -
Grezzo KTPF 182315Z AUTO 09003KT 10SM OVC110 25/14 A3006 RMK AO2

VFR

26°C / 14°C

[Più]
Vento 80º 6kt
Visibilità >10km
Tempo -
Nuvole Broken Clouds 11000ft
Pressione
Cambiamento -
Grezzo KTPF 182255Z AUTO 08006KT 10SM BKN110 26/14 A3005 RMK AO2

VFR

26°C / 13°C

[Più]
Vento 90º 6kt
Visibilità >10km
Tempo -
Nuvole Broken Clouds 10000ft
Pressione
Cambiamento -
Grezzo KTPF 182235Z AUTO 09006KT 10SM BKN100 26/13 A3005 RMK AO2

VFR

27°C / 13°C

[Più]
Vento 90º 6kt
Visibilità >10km
Tempo -
Nuvole Scattered Clouds 11000ft
Pressione
Cambiamento -
Grezzo KTPF 182215Z AUTO 09006KT 10SM SCT110 27/13 A3005 RMK AO2

VFR

27°C / 13°C

[Più]
Vento 70º 7kt
Visibilità >10km
Tempo -
Nuvole Scattered Clouds 11000ft
Pressione
Cambiamento -
Grezzo KTPF 182155Z AUTO 07007KT 10SM SCT110 27/13 A3004 RMK AO2

VFR

28°C / 14°C

[Più]
Vento 80º 8kt
Visibilità >10km
Tempo -
Nuvole Scattered Clouds 9500ft
Scattered Clouds 11000ft
Pressione
Cambiamento -
Grezzo KTPF 182135Z AUTO 08008KT 10SM SCT095 SCT110 28/14 A3004 RMK AO2

VFR

28°C / 15°C

[Più]
Vento 70º 9kt
Visibilità >10km
Tempo -
Nuvole Broken Clouds 10000ft
Pressione
Cambiamento -
Grezzo KTPF 182115Z AUTO 07009KT 10SM BKN100 28/15 A3004 RMK AO2

VFR

29°C / 15°C

[Più]
Vento 70º 8kt
Visibilità >10km
Tempo -
Nuvole Broken Clouds 11000ft
Pressione
Cambiamento -
Grezzo KTPF 182055Z AUTO 07008KT 10SM BKN110 29/15 A3003 RMK AO2

VFR

29°C / 15°C

[Più]
Vento 80º 8kt
Visibilità >10km
Tempo -
Nuvole Broken Clouds 10000ft
Pressione
Cambiamento -
Grezzo KTPF 182035Z AUTO 08008KT 10SM BKN100 29/15 A3003 RMK AO2

VFR

29°C / 15°C

[Più]
Vento 100º 5kt
Visibilità >10km
Tempo -
Nuvole Scattered Clouds 7500ft
Overcast 10000ft
Pressione
Cambiamento -
Grezzo KTPF 182015Z AUTO 10005KT 10SM SCT075 OVC100 29/15 A3003 RMK AO2

VFR

29°C / 15°C

[Più]
Vento 60º 11kt
Visibilità >10km
Tempo -
Nuvole Scattered Clouds 7500ft
Broken Clouds 10000ft
Overcast 12000ft
Pressione
Cambiamento -
Grezzo KTPF 181955Z AUTO 06011KT 10SM SCT075 BKN100 OVC120 29/15 A3004 RMK AO2

VFR

30°C / 14°C

[Più]
Vento 110º 5kt Gust 8kt
Visibilità >10km
Tempo -
Nuvole Broken Clouds 10000ft
Overcast 12000ft
Pressione
Cambiamento -
Grezzo KTPF 181935Z AUTO 11005G08KT 10SM BKN100 OVC120 30/14 A3004 RMK AO2

VFR

30°C / 15°C

[Più]
Vento 110º 6kt
Visibilità >10km
Tempo -
Nuvole Broken Clouds 10000ft
Overcast 12000ft
Pressione
Cambiamento -
Grezzo KTPF 181915Z AUTO 11006KT 10SM BKN100 OVC120 30/15 A3004 RMK AO2

VFR

30°C / 15°C

[Più]
Vento 60º 8kt
Visibilità >10km
Tempo -
Nuvole Scattered Clouds 8000ft
Overcast 10000ft
Pressione
Cambiamento -
Grezzo KTPF 181855Z AUTO 06008KT 10SM SCT080 OVC100 30/15 A3005 RMK AO2

VFR

29°C / 15°C

[Più]
Vento 90º 7kt
Visibilità >10km
Tempo -
Nuvole Overcast 10000ft
Pressione
Cambiamento -
Grezzo KTPF 181835Z AUTO 09007KT 10SM OVC100 29/15 A3006 RMK AO2

VFR

28°C / 15°C

[Più]
Vento 90º 5kt
Visibilità >10km
Tempo -
Nuvole Scattered Clouds 7000ft
Overcast 10000ft
Pressione
Cambiamento -
Grezzo KTPF 181815Z AUTO 09005KT 10SM SCT070 OVC100 28/15 A3006 RMK AO2

VFR

28°C / 15°C

[Più]
Vento 120º 5kt
Visibilità >10km
Tempo -
Nuvole Broken Clouds 10000ft
Overcast 11000ft
Pressione
Cambiamento -
Grezzo KTPF 181755Z AUTO 12005KT 10SM BKN100 OVC110 28/15 A3007 RMK AO2

VFR

28°C / 14°C

[Più]
Vento 110º 8kt
Visibilità >10km
Tempo -
Nuvole Broken Clouds 10000ft
Pressione
Cambiamento -
Grezzo KTPF 181735Z AUTO 11008KT 10SM BKN100 28/14 A3008 RMK AO2

VFR

28°C / 15°C

[Più]
Vento 130º 7kt
Visibilità >10km
Tempo -
Nuvole Broken Clouds 10000ft
Pressione
Cambiamento -
Grezzo KTPF 181715Z AUTO 13007KT 10SM BKN100 28/15 A3009 RMK AO2

VFR

28°C / 15°C

[Più]
Vento 100º 8kt Gust 14kt
Visibilità >10km
Tempo -
Nuvole Broken Clouds 10000ft
Pressione
Cambiamento -
Grezzo KTPF 181655Z AUTO 10008G14KT 7SM BKN100 28/15 A3009 RMK AO2

VFR

27°C / 15°C

[Più]
Vento 110º 8kt
Visibilità >10km
Tempo -
Nuvole Broken Clouds 10000ft
Broken Clouds 12000ft
Pressione
Cambiamento -
Grezzo KTPF 181635Z AUTO 11008KT 10SM BKN100 BKN120 27/15 A3010 RMK AO2

Immagine satellitare per Tampa, Stati Uniti

Il segnaposto è situato a Tampa. [Più]

L'immagine satellitare in tempo reale combina la luce visibile durante il giorno con la radiazione infrarossa durante la notte. Di notte l'immagine non è scura poiché i raggi infrarossi possono rilevare differenze di temperatura. Purtroppo, le nuvole basse e la nebbia sono difficili da distinguere dalla temperatura del suolo e possono pertanto essere quasi invisibili durante la notte. Le immagini satellitari Meteosat per l'Europa vengono aggiornate in tempo reale ogni 5 minuti. Le immagini GOES-16 / GOES-17 (Nord e Sud America) e Himawari (Asia) vengono aggiornate ogni 10 minuti.

Radar e nowcasting per Tampa

Pioggerella
Lieve
Moderato
Forte
Molto forte
Grandine

Il segnaposto è situato a Tampa. Questa animazione mostra il radar delle precipitazioni per l'ultima ora, nonché una previsione 1h. Drizzle or light snow fall might be invisible for the radar. Precipitation intensity is colour coded, ranging from light blue to orange.